sensor_id;sensor_type;location;lat;lon;timestamp;P1;durP1;ratioP1;P2;durP2;ratioP2
36243;SDS011;22284;49.956;19.816;2023-02-02T00:02:17;5.90;;;3.20;;
36243;SDS011;22284;49.956;19.816;2023-02-02T00:05:19;7.20;;;2.90;;
36243;SDS011;22284;49.956;19.816;2023-02-02T00:08:21;4.30;;;3.00;;
36243;SDS011;22284;49.956;19.816;2023-02-02T00:11:23;9.90;;;3.80;;
36243;SDS011;22284;49.956;19.816;2023-02-02T00:14:26;7.20;;;3.00;;
36243;SDS011;22284;49.956;19.816;2023-02-02T00:17:28;6.50;;;2.80;;
36243;SDS011;22284;49.956;19.816;2023-02-02T00:20:30;7.80;;;3.40;;
36243;SDS011;22284;49.956;19.816;2023-02-02T00:23:32;3.60;;;2.30;;
36243;SDS011;22284;49.956;19.816;2023-02-02T00:26:40;7.50;;;3.20;;
36243;SDS011;22284;49.956;19.816;2023-02-02T00:29:42;4.70;;;2.80;;
36243;SDS011;22284;49.956;19.816;2023-02-02T00:32:54;6.20;;;2.90;;
36243;SDS011;22284;49.956;19.816;2023-02-02T00:35:56;9.10;;;3.60;;
36243;SDS011;22284;49.956;19.816;2023-02-02T00:38:57;6.90;;;3.00;;
36243;SDS011;22284;49.956;19.816;2023-02-02T00:42:10;5.90;;;2.60;;
36243;SDS011;22284;49.956;19.816;2023-02-02T00:45:20;3.00;;;1.80;;
36243;SDS011;22284;49.956;19.816;2023-02-02T00:48:30;3.70;;;2.40;;
36243;SDS011;22284;49.956;19.816;2023-02-02T00:51:31;4.50;;;2.50;;
36243;SDS011;22284;49.956;19.816;2023-02-02T00:54:37;3.60;;;2.40;;
36243;SDS011;22284;49.956;19.816;2023-02-02T00:57:39;3.70;;;2.70;;
36243;SDS011;22284;49.956;19.816;2023-02-02T01:00:41;4.10;;;2.50;;
36243;SDS011;22284;49.956;19.816;2023-02-02T01:03:46;7.80;;;3.60;;
36243;SDS011;22284;49.956;19.816;2023-02-02T01:07:03;6.30;;;2.50;;
36243;SDS011;22284;49.956;19.816;2023-02-02T01:10:16;5.60;;;3.00;;
36243;SDS011;22284;49.956;19.816;2023-02-02T01:13:18;5.30;;;2.60;;
36243;SDS011;22284;49.956;19.816;2023-02-02T01:16:30;6.20;;;2.80;;
36243;SDS011;22284;49.956;19.816;2023-02-02T01:19:32;5.20;;;2.50;;
36243;SDS011;22284;49.956;19.816;2023-02-02T01:22:34;5.60;;;2.60;;
36243;SDS011;22284;49.956;19.816;2023-02-02T01:25:38;6.20;;;3.00;;
36243;SDS011;22284;49.956;19.816;2023-02-02T01:28:46;5.00;;;2.90;;
36243;SDS011;22284;49.956;19.816;2023-02-02T01:31:48;8.20;;;4.20;;
36243;SDS011;22284;49.956;19.816;2023-02-02T01:34:52;7.40;;;3.10;;
36243;SDS011;22284;49.956;19.816;2023-02-02T01:38:01;5.10;;;2.90;;
36243;SDS011;22284;49.956;19.816;2023-02-02T01:41:03;7.70;;;3.50;;
36243;SDS011;22284;49.956;19.816;2023-02-02T01:47:49;5.30;;;2.70;;
36243;SDS011;22284;49.956;19.816;2023-02-02T01:50:56;6.30;;;2.60;;
36243;SDS011;22284;49.956;19.816;2023-02-02T01:54:05;3.90;;;2.60;;
36243;SDS011;22284;49.956;19.816;2023-02-02T01:57:11;5.10;;;2.90;;
36243;SDS011;22284;49.956;19.816;2023-02-02T02:03:34;4.30;;;2.50;;
36243;SDS011;22284;49.956;19.816;2023-02-02T02:06:37;5.50;;;2.50;;
36243;SDS011;22284;49.956;19.816;2023-02-02T02:09:39;5.10;;;2.90;;
36243;SDS011;22284;49.956;19.816;2023-02-02T02:12:47;6.60;;;3.20;;
36243;SDS011;22284;49.956;19.816;2023-02-02T02:15:55;6.50;;;3.40;;
36243;SDS011;22284;49.956;19.816;2023-02-02T02:33:34;6.40;;;3.30;;
36243;SDS011;22284;49.956;19.816;2023-02-02T02:40:10;8.50;;;4.10;;
36243;SDS011;22284;49.956;19.816;2023-02-02T02:43:31;8.20;;;3.10;;
36243;SDS011;22284;49.956;19.816;2023-02-02T02:46:43;12.90;;;4.40;;
36243;SDS011;22284;49.956;19.816;2023-02-02T02:49:45;9.00;;;4.50;;
36243;SDS011;22284;49.956;19.816;2023-02-02T02:52:51;9.30;;;4.40;;
36243;SDS011;22284;49.956;19.816;2023-02-02T03:09:12;16.70;;;4.30;;
36243;SDS011;22284;49.956;19.816;2023-02-02T03:12:17;10.30;;;4.20;;
36243;SDS011;22284;49.956;19.816;2023-02-02T03:15:19;9.90;;;4.40;;
36243;SDS011;22284;49.956;19.816;2023-02-02T03:18:21;9.20;;;4.20;;
36243;SDS011;22284;49.956;19.816;2023-02-02T03:21:29;8.70;;;3.80;;
36243;SDS011;22284;49.956;19.816;2023-02-02T03:24:32;11.80;;;4.20;;
36243;SDS011;22284;49.956;19.816;2023-02-02T03:27:34;10.80;;;4.10;;
36243;SDS011;22284;49.956;19.816;2023-02-02T03:30:36;10.20;;;4.10;;
36243;SDS011;22284;49.956;19.816;2023-02-02T03:33:39;12.00;;;4.00;;
36243;SDS011;22284;49.956;19.816;2023-02-02T03:36:41;8.90;;;3.80;;
36243;SDS011;22284;49.956;19.816;2023-02-02T03:39:42;13.10;;;4.00;;
36243;SDS011;22284;49.956;19.816;2023-02-02T03:42:44;12.10;;;4.40;;
36243;SDS011;22284;49.956;19.816;2023-02-02T03:45:56;10.20;;;3.90;;
36243;SDS011;22284;49.956;19.816;2023-02-02T03:48:59;8.70;;;3.60;;
36243;SDS011;22284;49.956;19.816;2023-02-02T03:52:03;13.70;;;4.60;;
36243;SDS011;22284;49.956;19.816;2023-02-02T03:55:06;9.70;;;3.90;;
36243;SDS011;22284;49.956;19.816;2023-02-02T03:58:10;7.30;;;3.20;;
36243;SDS011;22284;49.956;19.816;2023-02-02T04:01:12;9.10;;;3.40;;
36243;SDS011;22284;49.956;19.816;2023-02-02T04:04:16;7.90;;;3.50;;
36243;SDS011;22284;49.956;19.816;2023-02-02T04:07:18;9.70;;;3.80;;
36243;SDS011;22284;49.956;19.816;2023-02-02T04:10:20;10.40;;;4.00;;
36243;SDS011;22284;49.956;19.816;2023-02-02T04:13:22;8.80;;;3.70;;
36243;SDS011;22284;49.956;19.816;2023-02-02T04:16:24;7.00;;;3.60;;
36243;SDS011;22284;49.956;19.816;2023-02-02T04:19:26;8.30;;;3.50;;
36243;SDS011;22284;49.956;19.816;2023-02-02T04:22:28;10.20;;;3.60;;
36243;SDS011;22284;49.956;19.816;2023-02-02T04:25:30;9.10;;;3.60;;
36243;SDS011;22284;49.956;19.816;2023-02-02T04:28:32;11.10;;;3.80;;
36243;SDS011;22284;49.956;19.816;2023-02-02T04:31:39;8.70;;;3.30;;
36243;SDS011;22284;49.956;19.816;2023-02-02T04:34:51;10.50;;;3.20;;
36243;SDS011;22284;49.956;19.816;2023-02-02T04:37:54;14.10;;;4.20;;
36243;SDS011;22284;49.956;19.816;2023-02-02T04:40:55;12.80;;;4.10;;
36243;SDS011;22284;49.956;19.816;2023-02-02T04:43:57;6.70;;;3.00;;
36243;SDS011;22284;49.956;19.816;2023-02-02T04:46:59;10.70;;;3.40;;
36243;SDS011;22284;49.956;19.816;2023-02-02T04:50:01;11.70;;;3.60;;
36243;SDS011;22284;49.956;19.816;2023-02-02T04:53:05;12.10;;;3.40;;
36243;SDS011;22284;49.956;19.816;2023-02-02T04:56:08;14.30;;;3.60;;
36243;SDS011;22284;49.956;19.816;2023-02-02T04:59:14;9.60;;;3.70;;
36243;SDS011;22284;49.956;19.816;2023-02-02T05:02:16;13.70;;;3.50;;
36243;SDS011;22284;49.956;19.816;2023-02-02T05:05:18;11.90;;;3.00;;
36243;SDS011;22284;49.956;19.816;2023-02-02T05:08:23;6.70;;;2.10;;
36243;SDS011;22284;49.956;19.816;2023-02-02T05:11:27;14.90;;;3.30;;
36243;SDS011;22284;49.956;19.816;2023-02-02T05:14:39;17.10;;;4.20;;
36243;SDS011;22284;49.956;19.816;2023-02-02T05:17:41;11.60;;;3.20;;
36243;SDS011;22284;49.956;19.816;2023-02-02T05:20:42;9.50;;;2.90;;
36243;SDS011;22284;49.956;19.816;2023-02-02T05:23:47;9.30;;;3.20;;
36243;SDS011;22284;49.956;19.816;2023-02-02T05:26:49;12.20;;;3.00;;
36243;SDS011;22284;49.956;19.816;2023-02-02T05:29:53;10.20;;;2.90;;
36243;SDS011;22284;49.956;19.816;2023-02-02T05:32:55;11.10;;;3.00;;
36243;SDS011;22284;49.956;19.816;2023-02-02T05:35:57;12.60;;;3.60;;
36243;SDS011;22284;49.956;19.816;2023-02-02T05:38:59;11.20;;;3.50;;
36243;SDS011;22284;49.956;19.816;2023-02-02T05:42:01;8.00;;;3.40;;
36243;SDS011;22284;49.956;19.816;2023-02-02T05:45:06;6.50;;;2.80;;
36243;SDS011;22284;49.956;19.816;2023-02-02T05:48:10;12.90;;;2.70;;
36243;SDS011;22284;49.956;19.816;2023-02-02T05:51:23;12.40;;;3.20;;
36243;SDS011;22284;49.956;19.816;2023-02-02T05:54:27;14.80;;;3.60;;
36243;SDS011;22284;49.956;19.816;2023-02-02T05:57:36;13.60;;;3.30;;
36243;SDS011;22284;49.956;19.816;2023-02-02T06:00:38;10.90;;;3.20;;
36243;SDS011;22284;49.956;19.816;2023-02-02T06:03:40;9.80;;;3.30;;
36243;SDS011;22284;49.956;19.816;2023-02-02T06:06:42;13.90;;;3.50;;
36243;SDS011;22284;49.956;19.816;2023-02-02T06:09:44;11.50;;;3.10;;
36243;SDS011;22284;49.956;19.816;2023-02-02T06:12:46;9.10;;;2.60;;
36243;SDS011;22284;49.956;19.816;2023-02-02T06:15:48;8.50;;;3.10;;
36243;SDS011;22284;49.956;19.816;2023-02-02T06:18:50;13.10;;;4.10;;
36243;SDS011;22284;49.956;19.816;2023-02-02T06:21:52;8.00;;;2.60;;
36243;SDS011;22284;49.956;19.816;2023-02-02T06:24:54;9.70;;;2.70;;
36243;SDS011;22284;49.956;19.816;2023-02-02T06:27:56;6.40;;;2.80;;
36243;SDS011;22284;49.956;19.816;2023-02-02T06:31:05;7.40;;;2.60;;
36243;SDS011;22284;49.956;19.816;2023-02-02T06:34:08;9.10;;;3.00;;
36243;SDS011;22284;49.956;19.816;2023-02-02T06:37:19;11.10;;;2.80;;
36243;SDS011;22284;49.956;19.816;2023-02-02T06:40:24;12.60;;;3.10;;
36243;SDS011;22284;49.956;19.816;2023-02-02T06:43:27;13.70;;;3.70;;
36243;SDS011;22284;49.956;19.816;2023-02-02T06:46:29;11.40;;;3.40;;
36243;SDS011;22284;49.956;19.816;2023-02-02T06:53:06;9.30;;;2.60;;
36243;SDS011;22284;49.956;19.816;2023-02-02T06:56:10;11.30;;;2.80;;
36243;SDS011;22284;49.956;19.816;2023-02-02T06:59:13;10.80;;;3.00;;
36243;SDS011;22284;49.956;19.816;2023-02-02T07:02:22;10.30;;;2.40;;
36243;SDS011;22284;49.956;19.816;2023-02-02T07:05:26;11.10;;;3.40;;
36243;SDS011;22284;49.956;19.816;2023-02-02T07:08:28;8.70;;;2.40;;
36243;SDS011;22284;49.956;19.816;2023-02-02T07:11:30;10.50;;;3.30;;
36243;SDS011;22284;49.956;19.816;2023-02-02T07:14:33;13.00;;;4.10;;
36243;SDS011;22284;49.956;19.816;2023-02-02T07:17:35;11.40;;;3.50;;
36243;SDS011;22284;49.956;19.816;2023-02-02T07:20:39;9.00;;;3.40;;
36243;SDS011;22284;49.956;19.816;2023-02-02T07:23:41;13.50;;;3.70;;
36243;SDS011;22284;49.956;19.816;2023-02-02T07:26:43;11.00;;;3.40;;
36243;SDS011;22284;49.956;19.816;2023-02-02T07:29:45;8.50;;;3.40;;
36243;SDS011;22284;49.956;19.816;2023-02-02T07:32:54;9.20;;;3.10;;
36243;SDS011;22284;49.956;19.816;2023-02-02T07:35:57;7.40;;;2.60;;
36243;SDS011;22284;49.956;19.816;2023-02-02T07:38:59;11.30;;;2.90;;
36243;SDS011;22284;49.956;19.816;2023-02-02T07:42:04;11.50;;;3.20;;
36243;SDS011;22284;49.956;19.816;2023-02-02T07:45:08;11.10;;;3.00;;
36243;SDS011;22284;49.956;19.816;2023-02-02T07:48:10;8.50;;;2.60;;
36243;SDS011;22284;49.956;19.816;2023-02-02T07:51:26;11.10;;;3.10;;
36243;SDS011;22284;49.956;19.816;2023-02-02T07:54:36;7.80;;;2.90;;
36243;SDS011;22284;49.956;19.816;2023-02-02T07:57:47;9.80;;;2.80;;
36243;SDS011;22284;49.956;19.816;2023-02-02T08:01:02;11.30;;;3.30;;
36243;SDS011;22284;49.956;19.816;2023-02-02T08:04:10;9.10;;;3.10;;
36243;SDS011;22284;49.956;19.816;2023-02-02T08:07:15;13.10;;;3.60;;
36243;SDS011;22284;49.956;19.816;2023-02-02T08:10:29;6.70;;;3.10;;
36243;SDS011;22284;49.956;19.816;2023-02-02T08:13:42;10.50;;;3.20;;
36243;SDS011;22284;49.956;19.816;2023-02-02T08:16:49;7.30;;;3.00;;
36243;SDS011;22284;49.956;19.816;2023-02-02T08:19:54;12.30;;;3.00;;
36243;SDS011;22284;49.956;19.816;2023-02-02T08:26:38;12.30;;;3.90;;
36243;SDS011;22284;49.956;19.816;2023-02-02T08:29:51;9.60;;;3.20;;
36243;SDS011;22284;49.956;19.816;2023-02-02T08:32:53;9.60;;;3.30;;
36243;SDS011;22284;49.956;19.816;2023-02-02T08:35:58;10.30;;;3.40;;
36243;SDS011;22284;49.956;19.816;2023-02-02T08:39:10;11.30;;;3.50;;
36243;SDS011;22284;49.956;19.816;2023-02-02T08:45:44;10.40;;;3.50;;
36243;SDS011;22284;49.956;19.816;2023-02-02T08:48:49;14.20;;;4.20;;
36243;SDS011;22284;49.956;19.816;2023-02-02T08:52:00;9.10;;;3.40;;
36243;SDS011;22284;49.956;19.816;2023-02-02T08:55:10;12.50;;;3.70;;
36243;SDS011;22284;49.956;19.816;2023-02-02T08:58:17;8.90;;;3.80;;
36243;SDS011;22284;49.956;19.816;2023-02-02T09:04:33;9.00;;;3.40;;
36243;SDS011;22284;49.956;19.816;2023-02-02T09:07:38;12.40;;;4.20;;
36243;SDS011;22284;49.956;19.816;2023-02-02T09:10:51;11.30;;;3.70;;
36243;SDS011;22284;49.956;19.816;2023-02-02T09:13:57;14.20;;;4.20;;
36243;SDS011;22284;49.956;19.816;2023-02-02T09:17:20;14.60;;;4.30;;
36243;SDS011;22284;49.956;19.816;2023-02-02T09:20:30;10.40;;;3.80;;
36243;SDS011;22284;49.956;19.816;2023-02-02T09:23:49;10.50;;;4.20;;
36243;SDS011;22284;49.956;19.816;2023-02-02T09:26:57;12.80;;;4.40;;
36243;SDS011;22284;49.956;19.816;2023-02-02T09:30:02;15.20;;;4.10;;
36243;SDS011;22284;49.956;19.816;2023-02-02T09:33:33;13.80;;;4.20;;
36243;SDS011;22284;49.956;19.816;2023-02-02T09:36:35;10.80;;;4.00;;
36243;SDS011;22284;49.956;19.816;2023-02-02T09:39:43;11.10;;;3.70;;
36243;SDS011;22284;49.956;19.816;2023-02-02T09:49:56;10.30;;;3.50;;
36243;SDS011;22284;49.956;19.816;2023-02-02T09:56:27;11.20;;;3.40;;
36243;SDS011;22284;49.956;19.816;2023-02-02T10:00:12;10.40;;;3.40;;
36243;SDS011;22284;49.956;19.816;2023-02-02T10:07:36;11.40;;;4.20;;
36243;SDS011;22284;49.956;19.816;2023-02-02T10:10:45;12.00;;;4.00;;
36243;SDS011;22284;49.956;19.816;2023-02-02T10:13:47;11.80;;;4.30;;
36243;SDS011;22284;49.956;19.816;2023-02-02T10:23:48;12.70;;;4.50;;
36243;SDS011;22284;49.956;19.816;2023-02-02T10:27:02;14.60;;;4.80;;
36243;SDS011;22284;49.956;19.816;2023-02-02T10:30:17;10.70;;;4.70;;
36243;SDS011;22284;49.956;19.816;2023-02-02T10:33:36;10.20;;;4.50;;
36243;SDS011;22284;49.956;19.816;2023-02-02T10:47:26;11.30;;;4.10;;
36243;SDS011;22284;49.956;19.816;2023-02-02T10:50:34;13.20;;;4.50;;
36243;SDS011;22284;49.956;19.816;2023-02-02T10:53:57;13.00;;;5.10;;
36243;SDS011;22284;49.956;19.816;2023-02-02T10:57:06;13.00;;;5.30;;
36243;SDS011;22284;49.956;19.816;2023-02-02T11:00:30;10.30;;;4.90;;
36243;SDS011;22284;49.956;19.816;2023-02-02T11:03:37;15.30;;;5.10;;
36243;SDS011;22284;49.956;19.816;2023-02-02T11:06:42;12.70;;;5.20;;
36243;SDS011;22284;49.956;19.816;2023-02-02T11:13:23;11.20;;;5.10;;
36243;SDS011;22284;49.956;19.816;2023-02-02T11:16:30;14.60;;;6.30;;
36243;SDS011;22284;49.956;19.816;2023-02-02T11:19:33;15.00;;;6.30;;
36243;SDS011;22284;49.956;19.816;2023-02-02T11:26:02;11.40;;;5.40;;
36243;SDS011;22284;49.956;19.816;2023-02-02T11:29:14;14.00;;;6.00;;
36243;SDS011;22284;49.956;19.816;2023-02-02T11:32:39;16.60;;;5.90;;
36243;SDS011;22284;49.956;19.816;2023-02-02T11:35:52;18.80;;;6.50;;
36243;SDS011;22284;49.956;19.816;2023-02-02T11:42:56;17.20;;;6.30;;
36243;SDS011;22284;49.956;19.816;2023-02-02T11:46:04;15.90;;;6.90;;
36243;SDS011;22284;49.956;19.816;2023-02-02T11:49:28;15.40;;;5.70;;
36243;SDS011;22284;49.956;19.816;2023-02-02T11:52:55;13.20;;;5.60;;
36243;SDS011;22284;49.956;19.816;2023-02-02T11:55:56;10.40;;;5.20;;
36243;SDS011;22284;49.956;19.816;2023-02-02T11:59:10;14.70;;;5.70;;
36243;SDS011;22284;49.956;19.816;2023-02-02T12:02:30;12.50;;;4.40;;
36243;SDS011;22284;49.956;19.816;2023-02-02T12:05:35;9.70;;;3.90;;
36243;SDS011;22284;49.956;19.816;2023-02-02T12:08:37;5.30;;;2.60;;
36243;SDS011;22284;49.956;19.816;2023-02-02T12:15:22;6.10;;;3.10;;
36243;SDS011;22284;49.956;19.816;2023-02-02T12:22:30;9.30;;;3.40;;
36243;SDS011;22284;49.956;19.816;2023-02-02T12:25:47;8.80;;;3.80;;
36243;SDS011;22284;49.956;19.816;2023-02-02T12:30:00;10.30;;;3.60;;
36243;SDS011;22284;49.956;19.816;2023-02-02T12:32:42;8.30;;;3.80;;
36243;SDS011;22284;49.956;19.816;2023-02-02T12:36:22;7.30;;;3.70;;
36243;SDS011;22284;49.956;19.816;2023-02-02T12:50:56;10.20;;;4.80;;
36243;SDS011;22284;49.956;19.816;2023-02-02T12:54:30;13.40;;;5.10;;
36243;SDS011;22284;49.956;19.816;2023-02-02T12:58:08;12.70;;;6.00;;
36243;SDS011;22284;49.956;19.816;2023-02-02T13:01:34;19.60;;;7.40;;
36243;SDS011;22284;49.956;19.816;2023-02-02T13:08:23;11.80;;;5.80;;
36243;SDS011;22284;49.956;19.816;2023-02-02T13:18:05;12.90;;;5.00;;
36243;SDS011;22284;49.956;19.816;2023-02-02T13:21:22;11.10;;;5.40;;
36243;SDS011;22284;49.956;19.816;2023-02-02T13:24:35;9.70;;;4.60;;
36243;SDS011;22284;49.956;19.816;2023-02-02T13:27:41;8.60;;;4.60;;
36243;SDS011;22284;49.956;19.816;2023-02-02T13:30:51;10.80;;;5.00;;
36243;SDS011;22284;49.956;19.816;2023-02-02T13:38:17;13.30;;;6.10;;
36243;SDS011;22284;49.956;19.816;2023-02-02T13:41:20;9.30;;;4.60;;
36243;SDS011;22284;49.956;19.816;2023-02-02T13:44:35;11.70;;;4.80;;
36243;SDS011;22284;49.956;19.816;2023-02-02T13:47:58;14.50;;;5.00;;
36243;SDS011;22284;49.956;19.816;2023-02-02T14:01:05;13.80;;;5.40;;
36243;SDS011;22284;49.956;19.816;2023-02-02T14:04:16;14.90;;;6.50;;
36243;SDS011;22284;49.956;19.816;2023-02-02T14:07:27;18.30;;;6.40;;
36243;SDS011;22284;49.956;19.816;2023-02-02T14:10:38;13.30;;;5.40;;
36243;SDS011;22284;49.956;19.816;2023-02-02T14:13:44;13.10;;;5.20;;
36243;SDS011;22284;49.956;19.816;2023-02-02T14:23:49;12.50;;;4.20;;
36243;SDS011;22284;49.956;19.816;2023-02-02T14:27:01;14.40;;;5.00;;
36243;SDS011;22284;49.956;19.816;2023-02-02T14:30:26;10.60;;;5.00;;
36243;SDS011;22284;49.956;19.816;2023-02-02T14:43:32;10.50;;;4.60;;
36243;SDS011;22284;49.956;19.816;2023-02-02T14:47:39;11.10;;;4.60;;
36243;SDS011;22284;49.956;19.816;2023-02-02T14:50:43;12.40;;;5.00;;
36243;SDS011;22284;49.956;19.816;2023-02-02T14:53:50;10.10;;;4.30;;
36243;SDS011;22284;49.956;19.816;2023-02-02T14:57:05;12.00;;;4.80;;
36243;SDS011;22284;49.956;19.816;2023-02-02T15:00:30;10.80;;;4.60;;
36243;SDS011;22284;49.956;19.816;2023-02-02T15:06:55;15.70;;;5.80;;
36243;SDS011;22284;49.956;19.816;2023-02-02T15:13:59;14.70;;;5.30;;
36243;SDS011;22284;49.956;19.816;2023-02-02T15:17:12;11.50;;;4.90;;
36243;SDS011;22284;49.956;19.816;2023-02-02T15:20:26;13.70;;;5.50;;
36243;SDS011;22284;49.956;19.816;2023-02-02T15:23:30;13.80;;;5.80;;
36243;SDS011;22284;49.956;19.816;2023-02-02T15:26:38;12.70;;;5.60;;
36243;SDS011;22284;49.956;19.816;2023-02-02T15:29:42;15.10;;;5.70;;
36243;SDS011;22284;49.956;19.816;2023-02-02T15:32:46;16.90;;;6.20;;
36243;SDS011;22284;49.956;19.816;2023-02-02T15:35:49;18.40;;;5.60;;
36243;SDS011;22284;49.956;19.816;2023-02-02T15:38:54;12.40;;;5.20;;
36243;SDS011;22284;49.956;19.816;2023-02-02T15:42:19;18.20;;;6.10;;
36243;SDS011;22284;49.956;19.816;2023-02-02T15:45:48;14.60;;;5.20;;
36243;SDS011;22284;49.956;19.816;2023-02-02T15:52:30;16.50;;;6.50;;
36243;SDS011;22284;49.956;19.816;2023-02-02T15:55:40;18.20;;;6.80;;
36243;SDS011;22284;49.956;19.816;2023-02-02T16:08:38;17.20;;;7.80;;
36243;SDS011;22284;49.956;19.816;2023-02-02T16:11:46;18.60;;;7.60;;
36243;SDS011;22284;49.956;19.816;2023-02-02T16:14:53;23.30;;;9.30;;
36243;SDS011;22284;49.956;19.816;2023-02-02T16:18:05;16.40;;;7.30;;
36243;SDS011;22284;49.956;19.816;2023-02-02T16:21:15;17.00;;;6.70;;
36243;SDS011;22284;49.956;19.816;2023-02-02T16:24:24;15.50;;;7.10;;
36243;SDS011;22284;49.956;19.816;2023-02-02T16:27:38;14.70;;;6.10;;
36243;SDS011;22284;49.956;19.816;2023-02-02T16:30:59;14.50;;;6.00;;
36243;SDS011;22284;49.956;19.816;2023-02-02T16:34:12;17.40;;;7.40;;
36243;SDS011;22284;49.956;19.816;2023-02-02T16:37:27;16.20;;;6.80;;
36243;SDS011;22284;49.956;19.816;2023-02-02T16:40:30;18.10;;;6.50;;
36243;SDS011;22284;49.956;19.816;2023-02-02T16:43:41;13.60;;;5.60;;
36243;SDS011;22284;49.956;19.816;2023-02-02T16:53:21;11.40;;;4.60;;
36243;SDS011;22284;49.956;19.816;2023-02-02T16:56:28;11.70;;;4.40;;
36243;SDS011;22284;49.956;19.816;2023-02-02T16:59:37;12.00;;;5.30;;
36243;SDS011;22284;49.956;19.816;2023-02-02T17:02:39;13.50;;;5.40;;
36243;SDS011;22284;49.956;19.816;2023-02-02T17:05:52;14.60;;;5.90;;
36243;SDS011;22284;49.956;19.816;2023-02-02T17:09:04;43.30;;;16.50;;
36243;SDS011;22284;49.956;19.816;2023-02-02T17:15:33;21.00;;;7.20;;
36243;SDS011;22284;49.956;19.816;2023-02-02T17:18:35;20.40;;;7.50;;
36243;SDS011;22284;49.956;19.816;2023-02-02T17:24:51;15.40;;;6.00;;
36243;SDS011;22284;49.956;19.816;2023-02-02T17:27:53;12.10;;;5.10;;
36243;SDS011;22284;49.956;19.816;2023-02-02T17:30:57;18.40;;;7.10;;
36243;SDS011;22284;49.956;19.816;2023-02-02T17:34:08;15.60;;;5.90;;
36243;SDS011;22284;49.956;19.816;2023-02-02T17:37:15;16.20;;;6.10;;
36243;SDS011;22284;49.956;19.816;2023-02-02T17:40:26;20.40;;;7.60;;
36243;SDS011;22284;49.956;19.816;2023-02-02T17:43:29;17.30;;;6.80;;
36243;SDS011;22284;49.956;19.816;2023-02-02T17:46:31;18.20;;;7.40;;
36243;SDS011;22284;49.956;19.816;2023-02-02T17:49:36;16.30;;;6.90;;
36243;SDS011;22284;49.956;19.816;2023-02-02T17:52:40;12.60;;;5.00;;
36243;SDS011;22284;49.956;19.816;2023-02-02T17:55:43;13.50;;;5.50;;
36243;SDS011;22284;49.956;19.816;2023-02-02T17:58:55;10.20;;;4.30;;
36243;SDS011;22284;49.956;19.816;2023-02-02T18:01:57;10.70;;;4.30;;
36243;SDS011;22284;49.956;19.816;2023-02-02T18:04:59;7.70;;;3.50;;
36243;SDS011;22284;49.956;19.816;2023-02-02T18:08:05;8.80;;;3.60;;
36243;SDS011;22284;49.956;19.816;2023-02-02T18:11:10;9.00;;;4.00;;
36243;SDS011;22284;49.956;19.816;2023-02-02T18:14:13;13.80;;;4.30;;
36243;SDS011;22284;49.956;19.816;2023-02-02T18:17:15;15.60;;;5.50;;
36243;SDS011;22284;49.956;19.816;2023-02-02T18:20:21;18.90;;;7.30;;
36243;SDS011;22284;49.956;19.816;2023-02-02T18:23:23;17.80;;;6.90;;
36243;SDS011;22284;49.956;19.816;2023-02-02T18:26:25;14.20;;;5.50;;
36243;SDS011;22284;49.956;19.816;2023-02-02T18:29:43;14.60;;;5.70;;
36243;SDS011;22284;49.956;19.816;2023-02-02T18:32:45;13.50;;;6.10;;
36243;SDS011;22284;49.956;19.816;2023-02-02T18:36:00;14.90;;;5.50;;
36243;SDS011;22284;49.956;19.816;2023-02-02T18:39:02;12.40;;;5.20;;
36243;SDS011;22284;49.956;19.816;2023-02-02T18:42:04;12.70;;;5.40;;
36243;SDS011;22284;49.956;19.816;2023-02-02T18:45:08;12.60;;;4.80;;
36243;SDS011;22284;49.956;19.816;2023-02-02T18:48:11;12.30;;;5.70;;
36243;SDS011;22284;49.956;19.816;2023-02-02T18:51:22;14.70;;;5.10;;
36243;SDS011;22284;49.956;19.816;2023-02-02T18:54:26;12.90;;;5.50;;
36243;SDS011;22284;49.956;19.816;2023-02-02T18:57:29;14.40;;;5.50;;
36243;SDS011;22284;49.956;19.816;2023-02-02T19:00:31;14.00;;;5.00;;
36243;SDS011;22284;49.956;19.816;2023-02-02T19:03:33;11.10;;;4.60;;
36243;SDS011;22284;49.956;19.816;2023-02-02T19:06:37;14.70;;;5.00;;
36243;SDS011;22284;49.956;19.816;2023-02-02T19:09:57;12.00;;;4.30;;
36243;SDS011;22284;49.956;19.816;2023-02-02T19:13:16;12.70;;;4.50;;
36243;SDS011;22284;49.956;19.816;2023-02-02T19:16:28;9.20;;;4.40;;
36243;SDS011;22284;49.956;19.816;2023-02-02T19:19:35;10.30;;;4.10;;
36243;SDS011;22284;49.956;19.816;2023-02-02T19:22:37;10.80;;;3.90;;
36243;SDS011;22284;49.956;19.816;2023-02-02T19:25:42;8.70;;;4.00;;
36243;SDS011;22284;49.956;19.816;2023-02-02T19:28:48;10.00;;;4.30;;
36243;SDS011;22284;49.956;19.816;2023-02-02T19:32:03;13.00;;;4.80;;
36243;SDS011;22284;49.956;19.816;2023-02-02T19:35:23;12.00;;;4.80;;
36243;SDS011;22284;49.956;19.816;2023-02-02T19:38:26;10.50;;;4.50;;
36243;SDS011;22284;49.956;19.816;2023-02-02T19:41:29;10.80;;;4.40;;
36243;SDS011;22284;49.956;19.816;2023-02-02T19:44:42;13.50;;;4.90;;
36243;SDS011;22284;49.956;19.816;2023-02-02T19:47:47;10.10;;;4.50;;
36243;SDS011;22284;49.956;19.816;2023-02-02T19:50:58;11.40;;;4.90;;
36243;SDS011;22284;49.956;19.816;2023-02-02T19:54:25;15.20;;;5.70;;
36243;SDS011;22284;49.956;19.816;2023-02-02T19:57:33;16.50;;;6.20;;
36243;SDS011;22284;49.956;19.816;2023-02-02T20:00:42;13.80;;;5.10;;
36243;SDS011;22284;49.956;19.816;2023-02-02T20:03:45;16.90;;;6.10;;
36243;SDS011;22284;49.956;19.816;2023-02-02T20:06:47;15.20;;;6.00;;
36243;SDS011;22284;49.956;19.816;2023-02-02T20:10:08;16.70;;;6.20;;
36243;SDS011;22284;49.956;19.816;2023-02-02T20:13:19;14.50;;;6.50;;
36243;SDS011;22284;49.956;19.816;2023-02-02T20:16:26;17.30;;;6.60;;
36243;SDS011;22284;49.956;19.816;2023-02-02T20:19:39;16.70;;;6.90;;
36243;SDS011;22284;49.956;19.816;2023-02-02T20:22:44;21.00;;;7.30;;
36243;SDS011;22284;49.956;19.816;2023-02-02T20:25:48;16.10;;;6.40;;
36243;SDS011;22284;49.956;19.816;2023-02-02T20:29:09;15.90;;;6.20;;
36243;SDS011;22284;49.956;19.816;2023-02-02T20:32:19;17.80;;;7.60;;
36243;SDS011;22284;49.956;19.816;2023-02-02T20:35:33;15.50;;;6.30;;
36243;SDS011;22284;49.956;19.816;2023-02-02T20:38:39;17.30;;;6.50;;
36243;SDS011;22284;49.956;19.816;2023-02-02T20:41:51;14.40;;;6.30;;
36243;SDS011;22284;49.956;19.816;2023-02-02T20:45:01;17.70;;;6.90;;
36243;SDS011;22284;49.956;19.816;2023-02-02T20:48:03;16.50;;;6.90;;
36243;SDS011;22284;49.956;19.816;2023-02-02T20:51:15;18.50;;;7.30;;
36243;SDS011;22284;49.956;19.816;2023-02-02T20:54:26;18.40;;;7.30;;
36243;SDS011;22284;49.956;19.816;2023-02-02T20:57:29;15.40;;;6.90;;
36243;SDS011;22284;49.956;19.816;2023-02-02T21:00:32;15.10;;;6.60;;
36243;SDS011;22284;49.956;19.816;2023-02-02T21:03:43;18.40;;;7.60;;
36243;SDS011;22284;49.956;19.816;2023-02-02T21:06:49;20.70;;;7.80;;
36243;SDS011;22284;49.956;19.816;2023-02-02T21:09:51;17.30;;;7.50;;
36243;SDS011;22284;49.956;19.816;2023-02-02T21:12:56;18.50;;;8.50;;
36243;SDS011;22284;49.956;19.816;2023-02-02T21:16:05;20.50;;;9.40;;
36243;SDS011;22284;49.956;19.816;2023-02-02T21:19:10;21.80;;;8.70;;
36243;SDS011;22284;49.956;19.816;2023-02-02T21:22:12;24.60;;;9.00;;
36243;SDS011;22284;49.956;19.816;2023-02-02T21:25:23;22.80;;;8.30;;
36243;SDS011;22284;49.956;19.816;2023-02-02T21:28:27;17.20;;;7.60;;
36243;SDS011;22284;49.956;19.816;2023-02-02T21:31:38;17.60;;;7.60;;
36243;SDS011;22284;49.956;19.816;2023-02-02T21:34:40;15.30;;;8.20;;